Henderson, Nebraska
Current Conditions -  °F | °C
As of 3:15 PM on Tuesday 27 Jan 2015 (Local Time) from KAUH Reporting Station
Clear Clear  
Wind Chill: 17°   Ceiling: Unl
Heat Index: 17°   Visibility: 10mi
Dew Point:   Wind: 13mph
Humidity: 33%   Direction: 160°SSE
Pressure: 29.96"   Gusts: NA
Location:  40.78°N, 97.81°W
Report Text: KAUH 272115Z AUTO 16011KT 10SM CLR 17/00 A2996 RMK AO2 T01680002
Loading
Personal Weather Stations






























Interactive Weather Map New forecast layout! Learn more

10-Day Weather Forecast

Advertisements
Track Severe Weather on mobile